createdAt,value
2022-08-09T00:01:57.259Z,17.31
2022-08-09T00:04:34.699Z,17.29
2022-08-09T00:07:10.586Z,17.33
2022-08-09T00:09:40.856Z,17.33
2022-08-09T00:12:22.413Z,17.34
2022-08-09T00:14:52.790Z,17.35
2022-08-09T00:18:05.909Z,17.33
2022-08-09T00:20:15.958Z,17.35
2022-08-09T00:22:47.124Z,17.38
2022-08-09T00:25:23.405Z,17.38
2022-08-09T00:28:06.484Z,17.38
2022-08-09T00:30:36.119Z,17.38
2022-08-09T00:33:05.608Z,17.41
2022-08-09T00:35:43.383Z,17.41
2022-08-09T00:38:13.859Z,17.41
2022-08-09T00:40:52.598Z,17.41
2022-08-09T00:44:13.720Z,17.42
2022-08-09T00:46:28.279Z,17.43
2022-08-09T00:49:04.085Z,17.43
2022-08-09T00:51:33.871Z,17.43
2022-08-09T00:54:12.624Z,17.44
2022-08-09T00:56:44.952Z,17.44
2022-08-09T00:59:15.845Z,17.44
2022-08-09T01:02:05.175Z,17.43
2022-08-09T01:04:44.057Z,17.45
2022-08-09T01:07:37.780Z,17.47
2022-08-09T01:10:20.638Z,17.47
2022-08-09T01:12:56.824Z,17.50
2022-08-09T01:15:37.191Z,17.50
2022-08-09T01:18:14.211Z,17.49
2022-08-09T01:20:50.930Z,17.52
2022-08-09T01:24:02.270Z,17.54
2022-08-09T01:26:54.347Z,17.54
2022-08-09T01:29:41.014Z,17.54
2022-08-09T01:32:32.042Z,17.52
2022-08-09T01:35:28.281Z,17.53
2022-08-09T01:38:07.772Z,17.54
2022-08-09T01:40:43.745Z,17.55
2022-08-09T01:43:16.556Z,17.55
2022-08-09T01:45:48.648Z,17.55
2022-08-09T01:48:24.138Z,17.56
2022-08-09T01:51:00.993Z,17.55
2022-08-09T01:53:41.057Z,17.56
2022-08-09T01:56:12.358Z,17.56
2022-08-09T01:58:48.931Z,17.57
2022-08-09T02:01:20.021Z,17.58
2022-08-09T02:04:01.221Z,17.57
2022-08-09T02:06:58.368Z,17.56
2022-08-09T02:09:42.206Z,17.55
2022-08-09T02:12:21.263Z,17.55
2022-08-09T02:14:55.885Z,17.54
2022-08-09T02:18:01.004Z,17.52
2022-08-09T02:20:26.438Z,17.50
2022-08-09T02:23:08.020Z,17.49
2022-08-09T02:25:49.421Z,17.51
2022-08-09T02:28:26.706Z,17.52
2022-08-09T02:31:05.781Z,17.53
2022-08-09T02:34:07.023Z,17.53
2022-08-09T02:36:33.496Z,17.54
2022-08-09T02:39:14.271Z,17.54
2022-08-09T02:41:53.876Z,17.55
2022-08-09T02:44:30.361Z,17.55
2022-08-09T02:47:08.200Z,17.54
2022-08-09T02:49:44.520Z,17.54
2022-08-09T02:52:19.172Z,17.55
2022-08-09T02:54:53.839Z,17.54
2022-08-09T02:57:25.742Z,17.55
2022-08-09T03:00:21.035Z,17.56
2022-08-09T03:02:58.438Z,17.56
2022-08-09T03:05:34.434Z,17.56
2022-08-09T03:08:06.349Z,17.57
2022-08-09T03:10:38.221Z,17.57
2022-08-09T03:13:09.868Z,17.56
2022-08-09T03:16:06.353Z,17.58
2022-08-09T03:18:32.449Z,17.56
2022-08-09T03:21:04.027Z,17.56
2022-08-09T03:23:33.842Z,17.57
2022-08-09T03:26:05.086Z,17.56
2022-08-09T03:28:36.119Z,17.58
2022-08-09T03:31:17.918Z,17.55
2022-08-09T03:33:53.135Z,17.54
2022-08-09T03:36:27.510Z,17.54
2022-08-09T03:38:58.146Z,17.53
2022-08-09T03:41:30.303Z,17.54
2022-08-09T03:44:15.709Z,17.56
2022-08-09T03:46:46.495Z,17.56
2022-08-09T03:49:21.326Z,17.58
2022-08-09T03:52:00.445Z,17.57
2022-08-09T03:54:38.639Z,17.57
2022-08-09T03:57:18.163Z,17.59
2022-08-09T03:59:54.478Z,17.60
2022-08-09T04:02:28.181Z,17.63
2022-08-09T04:05:06.458Z,17.63
2022-08-09T04:07:53.386Z,17.67
2022-08-09T04:10:29.133Z,17.67
2022-08-09T04:13:03.992Z,17.67
2022-08-09T04:16:17.303Z,17.70
2022-08-09T04:18:25.125Z,17.72
2022-08-09T04:20:56.771Z,17.74
2022-08-09T04:23:26.048Z,17.74
2022-08-09T04:25:55.857Z,17.77
2022-08-09T04:28:33.195Z,17.77
2022-08-09T04:31:10.065Z,17.79
2022-08-09T04:33:51.930Z,17.80
2022-08-09T04:36:26.297Z,17.81
2022-08-09T04:38:56.846Z,17.83
2022-08-09T04:41:33.038Z,17.86
2022-08-09T04:44:06.241Z,17.87
2022-08-09T04:46:58.539Z,17.86
2022-08-09T04:49:53.090Z,17.89
2022-08-09T04:52:26.987Z,17.90
2022-08-09T04:54:57.574Z,17.92
2022-08-09T04:57:54.139Z,17.93
2022-08-09T05:00:18.207Z,17.96
2022-08-09T05:02:51.851Z,17.98
2022-08-09T05:05:32.151Z,18.00
2022-08-09T05:08:15.088Z,18.02
2022-08-09T05:10:45.561Z,18.04
2022-08-09T05:13:15.626Z,18.06
2022-08-09T05:15:48.080Z,18.09
2022-08-09T05:18:50.658Z,18.10
2022-08-09T05:21:20.760Z,18.09
2022-08-09T05:24:00.240Z,18.15
2022-08-09T05:26:36.014Z,18.17
2022-08-09T05:29:07.329Z,18.19
2022-08-09T05:31:56.139Z,18.21
2022-08-09T05:34:31.315Z,18.22
2022-08-09T05:37:06.448Z,18.24
2022-08-09T05:39:43.289Z,18.26
2022-08-09T05:42:17.757Z,18.30
2022-08-09T05:44:52.514Z,18.32
2022-08-09T05:47:23.167Z,18.34
2022-08-09T05:50:24.007Z,18.36
2022-08-09T05:52:53.819Z,18.39
2022-08-09T05:55:26.050Z,18.42
2022-08-09T05:57:58.252Z,18.43
2022-08-09T06:00:29.953Z,18.45
2022-08-09T06:03:00.817Z,18.50
2022-08-09T06:05:57.495Z,18.52
2022-08-09T06:08:24.415Z,18.54
2022-08-09T06:10:58.106Z,18.56
2022-08-09T06:13:28.621Z,18.58
2022-08-09T06:16:04.777Z,18.60
2022-08-09T06:18:34.978Z,18.64
2022-08-09T06:21:06.605Z,18.67
2022-08-09T06:23:55.434Z,18.69
2022-08-09T06:26:28.408Z,18.72
2022-08-09T06:29:00.087Z,18.72
2022-08-09T06:31:39.937Z,18.75
2022-08-09T06:34:23.032Z,18.77
2022-08-09T06:36:57.265Z,18.81
2022-08-09T06:39:49.105Z,18.84
2022-08-09T06:42:30.661Z,18.88
2022-08-09T06:45:52.118Z,18.92
2022-08-09T06:48:00.538Z,18.99
2022-08-09T06:50:31.212Z,18.99
2022-08-09T06:53:02.701Z,19.03
2022-08-09T06:55:33.261Z,19.10
2022-08-09T06:58:04.845Z,19.14
2022-08-09T07:00:54.267Z,19.18
2022-08-09T07:03:27.629Z,19.21
2022-08-09T07:06:03.654Z,19.26
2022-08-09T07:08:37.310Z,19.29
2022-08-09T07:11:12.673Z,19.35
2022-08-09T07:13:45.005Z,19.37
2022-08-09T07:16:41.196Z,19.40
2022-08-09T07:19:22.833Z,19.43
2022-08-09T07:21:57.674Z,19.45
2022-08-09T07:24:31.607Z,19.50
2022-08-09T07:27:03.505Z,19.55
2022-08-09T07:29:42.935Z,19.59
2022-08-09T07:32:12.358Z,19.68
2022-08-09T07:34:42.075Z,19.72
2022-08-09T07:37:15.818Z,19.76
2022-08-09T07:39:46.466Z,19.80
2022-08-09T07:42:15.893Z,19.83
2022-08-09T07:44:51.663Z,19.89
2022-08-09T07:47:23.684Z,19.96
2022-08-09T07:50:08.411Z,20.03
2022-08-09T07:52:41.355Z,20.04
2022-08-09T07:55:12.654Z,20.10
2022-08-09T07:57:47.325Z,20.18
2022-08-09T08:00:36.257Z,20.25
2022-08-09T08:03:08.352Z,20.33
2022-08-09T08:05:57.858Z,20.43
2022-08-09T08:09:00.004Z,20.50
2022-08-09T08:12:11.321Z,20.55
2022-08-09T08:14:06.832Z,20.65
2022-08-09T08:16:40.051Z,20.72
2022-08-09T08:19:31.283Z,20.77
2022-08-09T08:22:01.018Z,20.89
2022-08-09T08:24:35.422Z,20.96
2022-08-09T08:27:17.078Z,21.05
2022-08-09T08:29:49.828Z,21.09
2022-08-09T08:32:29.044Z,21.18
2022-08-09T08:35:12.429Z,21.27
2022-08-09T08:37:59.569Z,21.34
2022-08-09T08:40:32.474Z,21.41
2022-08-09T08:43:13.122Z,21.46
2022-08-09T08:45:53.681Z,21.49
2022-08-09T08:48:39.244Z,21.50
2022-08-09T08:51:20.871Z,21.56
2022-08-09T08:54:03.516Z,21.60
2022-08-09T08:56:36.476Z,21.62
2022-08-09T08:59:19.741Z,21.67
2022-08-09T09:01:52.763Z,21.74
2022-08-09T09:04:31.317Z,21.81
2022-08-09T09:07:12.194Z,21.84
2022-08-09T09:09:59.571Z,21.89
2022-08-09T09:12:35.756Z,21.89
2022-08-09T09:15:07.472Z,21.92
2022-08-09T09:17:48.177Z,21.94
2022-08-09T09:20:21.532Z,21.95
2022-08-09T09:23:01.903Z,22.00
2022-08-09T09:26:04.788Z,22.11
2022-08-09T09:29:01.780Z,22.26
2022-08-09T09:32:03.571Z,22.37
2022-08-09T09:34:18.432Z,22.42
2022-08-09T09:36:54.151Z,22.43
2022-08-09T09:39:54.541Z,22.43
2022-08-09T09:42:25.881Z,22.45
2022-08-09T09:45:00.052Z,22.52
2022-08-09T09:47:32.644Z,22.54
2022-08-09T09:50:14.554Z,22.65
2022-08-09T09:52:54.894Z,22.79
2022-08-09T09:55:31.296Z,22.93
2022-08-09T09:58:16.126Z,22.99
2022-08-09T10:00:54.597Z,23.02
2022-08-09T10:03:57.470Z,23.06
2022-08-09T10:06:32.058Z,23.08
2022-08-09T10:09:12.037Z,23.20
2022-08-09T10:12:14.636Z,23.33
2022-08-09T10:14:49.885Z,23.41
2022-08-09T10:17:40.408Z,23.46
2022-08-09T10:20:36.076Z,23.51
2022-08-09T10:23:21.366Z,23.56
2022-08-09T10:26:06.487Z,23.64
2022-08-09T10:28:39.985Z,23.74
2022-08-09T10:34:11.072Z,23.78
2022-08-09T10:36:56.717Z,23.82
2022-08-09T10:39:28.652Z,23.94
2022-08-09T10:41:59.856Z,24.00
2022-08-09T10:44:31.671Z,24.05
2022-08-09T10:48:12.589Z,24.14
2022-08-09T10:50:49.639Z,24.21
2022-08-09T10:53:38.068Z,24.20
2022-08-09T10:56:22.815Z,24.27
2022-08-09T10:58:55.644Z,24.33
2022-08-09T11:03:15.243Z,24.42
2022-08-09T11:04:33.882Z,24.48
2022-08-09T11:07:57.270Z,24.53
2022-08-09T11:10:18.399Z,24.58
2022-08-09T11:13:02.381Z,24.59
2022-08-09T11:15:38.457Z,24.65
2022-08-09T11:18:45.800Z,24.66
2022-08-09T11:21:57.517Z,24.73
2022-08-09T11:25:08.498Z,24.73
2022-08-09T11:28:02.259Z,24.79
2022-08-09T11:30:37.641Z,24.90
2022-08-09T11:33:24.664Z,24.91
2022-08-09T11:35:58.504Z,24.95
2022-08-09T11:38:33.052Z,25.04
2022-08-09T11:41:38.130Z,25.09
2022-08-09T11:44:09.138Z,25.10
2022-08-09T11:46:57.091Z,25.14
2022-08-09T11:50:53.847Z,25.08
2022-08-09T11:53:44.017Z,25.05
2022-08-09T11:56:42.760Z,25.10
2022-08-09T11:59:30.336Z,25.11
2022-08-09T12:02:16.860Z,25.12
2022-08-09T12:04:58.750Z,25.22
2022-08-09T12:07:34.306Z,25.26
2022-08-09T12:10:04.465Z,25.19
2022-08-09T12:12:46.765Z,25.19
2022-08-09T12:15:49.658Z,25.27
2022-08-09T12:18:29.663Z,25.38
2022-08-09T12:21:02.520Z,25.41
2022-08-09T12:23:58.068Z,25.49
2022-08-09T12:26:25.606Z,25.52
2022-08-09T12:29:29.727Z,25.50
2022-08-09T12:31:58.933Z,25.44
2022-08-09T12:34:38.708Z,25.45
2022-08-09T12:37:23.899Z,25.45
2022-08-09T12:40:03.757Z,25.49
2022-08-09T12:42:35.686Z,25.53
2022-08-09T12:45:32.355Z,25.58
2022-08-09T12:47:56.228Z,25.58
2022-08-09T12:50:27.552Z,25.61
2022-08-09T12:53:08.803Z,25.63
2022-08-09T12:56:16.129Z,25.65
2022-08-09T12:58:42.813Z,25.64
2022-08-09T13:01:28.319Z,25.64
2022-08-09T13:04:03.025Z,25.65
2022-08-09T13:06:36.712Z,25.64
2022-08-09T13:09:12.539Z,25.66
2022-08-09T13:11:45.388Z,25.67
2022-08-09T13:14:42.803Z,25.68
2022-08-09T13:17:08.614Z,25.67
2022-08-09T13:20:09.679Z,25.64
2022-08-09T13:22:45.511Z,25.59
2022-08-09T13:25:21.050Z,25.53
2022-08-09T13:27:56.047Z,25.43
2022-08-09T13:30:50.309Z,25.38
2022-08-09T13:33:52.488Z,25.33
2022-08-09T13:36:40.215Z,25.31
2022-08-09T13:41:21.150Z,25.28
2022-08-09T13:42:02.069Z,25.29
2022-08-09T13:44:32.910Z,25.29
2022-08-09T13:47:27.737Z,25.25
2022-08-09T13:49:57.402Z,25.17
2022-08-09T13:52:28.740Z,25.15
2022-08-09T13:55:04.651Z,25.10
2022-08-09T13:57:40.354Z,25.13
2022-08-09T14:00:15.485Z,25.07
2022-08-09T14:03:04.082Z,25.05
2022-08-09T14:05:59.306Z,25.01
2022-08-09T14:08:28.285Z,25.00
2022-08-09T14:11:00.464Z,24.97
2022-08-09T14:14:23.294Z,24.91
2022-08-09T14:16:28.241Z,24.89
2022-08-09T14:18:59.508Z,24.88
2022-08-09T14:21:32.076Z,24.85
2022-08-09T14:24:05.548Z,24.81
2022-08-09T14:26:41.879Z,24.78
2022-08-09T14:30:04.105Z,24.75
2022-08-09T14:32:10.672Z,24.74
2022-08-09T14:34:41.139Z,24.70
2022-08-09T14:37:11.053Z,24.73
2022-08-09T14:39:46.868Z,24.66
2022-08-09T14:42:30.232Z,24.62
2022-08-09T14:45:01.601Z,24.56
2022-08-09T14:47:58.213Z,24.50
2022-08-09T14:50:31.655Z,24.44
2022-08-09T14:53:03.422Z,24.38
2022-08-09T14:55:35.763Z,24.28
2022-08-09T14:58:06.888Z,24.22
2022-08-09T15:00:37.159Z,24.17
2022-08-09T15:03:10.821Z,24.13
2022-08-09T15:05:50.360Z,24.14
2022-08-09T15:08:24.439Z,24.15
2022-08-09T15:11:00.995Z,24.18
2022-08-09T15:13:56.249Z,24.12
2022-08-09T15:16:29.714Z,24.16
2022-08-09T15:19:05.753Z,24.14
2022-08-09T15:22:01.825Z,24.10
2022-08-09T15:24:32.116Z,24.07
2022-08-09T15:27:01.478Z,24.08
2022-08-09T15:30:56.602Z,24.08
2022-08-09T15:32:28.625Z,24.02
2022-08-09T15:35:00.622Z,24.05
2022-08-09T15:37:56.699Z,24.09
2022-08-09T15:40:32.231Z,24.05
2022-08-09T15:43:03.260Z,24.12
2022-08-09T15:45:52.066Z,24.13
2022-08-09T15:48:28.775Z,24.15
2022-08-09T15:51:00.809Z,24.15
2022-08-09T15:54:03.495Z,24.23
2022-08-09T15:56:21.632Z,24.26
2022-08-09T15:58:59.464Z,24.29
2022-08-09T16:01:31.427Z,24.31
2022-08-09T16:04:05.659Z,24.35
2022-08-09T16:06:44.754Z,24.32
2022-08-09T16:09:51.149Z,24.32
2022-08-09T16:12:11.379Z,24.34
2022-08-09T16:14:41.206Z,24.39
2022-08-09T16:17:17.005Z,24.34
2022-08-09T16:19:49.097Z,24.37
2022-08-09T16:22:34.292Z,24.44
2022-08-09T16:25:06.298Z,24.45
2022-08-09T16:27:36.171Z,24.48
2022-08-09T16:30:08.358Z,24.43
2022-08-09T16:33:03.190Z,24.38
2022-08-09T16:35:53.122Z,24.30
2022-08-09T16:38:22.107Z,24.21
2022-08-09T16:40:52.314Z,24.13
2022-08-09T16:43:21.743Z,24.03
2022-08-09T16:45:53.809Z,23.91
2022-08-09T16:48:38.946Z,23.85
2022-08-09T16:51:15.316Z,23.78
2022-08-09T16:54:24.810Z,23.66
2022-08-09T16:56:36.317Z,23.54
2022-08-09T16:59:10.599Z,23.42
2022-08-09T17:01:43.117Z,23.31
2022-08-09T17:04:26.080Z,23.20
2022-08-09T17:08:40.879Z,23.12
2022-08-09T17:09:49.092Z,22.99
2022-08-09T17:12:19.797Z,22.94
2022-08-09T17:14:54.977Z,22.86
2022-08-09T17:17:27.887Z,22.76
2022-08-09T17:20:28.975Z,22.70
2022-08-09T17:22:52.092Z,22.57
2022-08-09T17:25:23.590Z,22.46
2022-08-09T17:27:55.006Z,22.39
2022-08-09T17:30:27.951Z,22.35
2022-08-09T17:33:01.468Z,22.30
2022-08-09T17:35:41.100Z,22.19
2022-08-09T17:38:30.926Z,22.13
2022-08-09T17:41:03.160Z,22.07
2022-08-09T17:43:36.886Z,21.99
2022-08-09T17:46:09.275Z,21.93
2022-08-09T17:48:46.738Z,21.88
2022-08-09T17:51:23.837Z,21.79
2022-08-09T17:53:55.919Z,21.74
2022-08-09T17:56:28.982Z,21.67
2022-08-09T17:59:09.654Z,21.60
2022-08-09T18:02:06.068Z,21.54
2022-08-09T18:04:31.064Z,21.45
2022-08-09T18:07:04.784Z,21.40
2022-08-09T18:09:41.445Z,21.30
2022-08-09T18:12:17.046Z,21.21
2022-08-09T18:14:54.623Z,21.18
2022-08-09T18:18:02.886Z,21.12
2022-08-09T18:20:55.492Z,21.07
2022-08-09T18:23:08.627Z,20.98
2022-08-09T18:25:58.081Z,20.90
2022-08-09T18:30:39.812Z,20.85
2022-08-09T18:31:32.485Z,20.81
2022-08-09T18:34:09.232Z,20.73
2022-08-09T18:36:38.552Z,20.61
2022-08-09T18:39:11.166Z,20.50
2022-08-09T18:41:53.274Z,20.45
2022-08-09T18:44:25.775Z,20.37
2022-08-09T18:47:08.293Z,20.26
2022-08-09T18:49:46.186Z,20.18
2022-08-09T18:52:18.881Z,20.09
2022-08-09T18:54:55.955Z,19.99
2022-08-09T18:57:42.920Z,19.90
2022-08-09T19:00:16.381Z,19.81
2022-08-09T19:02:51.077Z,19.71
2022-08-09T19:05:49.127Z,19.66
2022-08-09T19:08:18.415Z,19.60
2022-08-09T19:10:50.734Z,19.56
2022-08-09T19:13:38.080Z,19.49
2022-08-09T19:16:13.075Z,19.44
2022-08-09T19:18:45.693Z,19.38
2022-08-09T19:21:15.132Z,19.34
2022-08-09T19:24:35.580Z,19.28
2022-08-09T19:26:35.935Z,19.21
2022-08-09T19:29:15.188Z,19.16
2022-08-09T19:31:51.288Z,19.11
2022-08-09T19:34:24.696Z,19.06
2022-08-09T19:36:57.471Z,19.01
2022-08-09T19:40:03.120Z,18.93
2022-08-09T19:42:19.933Z,18.88
2022-08-09T19:44:58.817Z,18.85
2022-08-09T19:47:28.101Z,18.80
2022-08-09T19:50:08.381Z,18.78
2022-08-09T19:52:49.446Z,18.69
2022-08-09T19:55:30.562Z,18.60
2022-08-09T19:58:02.194Z,18.56
2022-08-09T20:00:32.836Z,18.55
2022-08-09T20:04:11.715Z,18.47
2022-08-09T20:05:52.319Z,18.41
2022-08-09T20:08:25.095Z,18.34
2022-08-09T20:11:04.976Z,18.33
2022-08-09T20:13:36.852Z,18.32
2022-08-09T20:16:36.411Z,18.28
2022-08-09T20:19:42.248Z,18.28
2022-08-09T20:21:56.125Z,18.28
2022-08-09T20:24:31.763Z,18.29
2022-08-09T20:27:05.485Z,18.32
2022-08-09T20:29:39.976Z,18.25
2022-08-09T20:32:29.117Z,18.22
2022-08-09T20:35:01.481Z,18.15
2022-08-09T20:37:37.928Z,18.11
2022-08-09T20:40:27.409Z,18.03
2022-08-09T20:43:11.997Z,18.02
2022-08-09T20:46:01.242Z,18.01
2022-08-09T20:48:39.047Z,18.02
2022-08-09T20:51:16.656Z,18.01
2022-08-09T20:53:49.149Z,17.98
2022-08-09T20:56:21.875Z,17.87
2022-08-09T20:58:58.731Z,17.80
2022-08-09T21:01:35.121Z,17.78
2022-08-09T21:05:53.363Z,17.81
2022-08-09T21:07:13.702Z,17.83
2022-08-09T21:09:56.532Z,17.78
2022-08-09T21:15:23.794Z,17.59
2022-08-09T21:18:22.399Z,17.57
2022-08-09T21:20:54.596Z,17.58
2022-08-09T21:23:36.009Z,17.59
2022-08-09T21:26:15.806Z,17.56
2022-08-09T21:28:55.536Z,17.55
2022-08-09T21:31:49.453Z,17.56
2022-08-09T21:34:28.617Z,17.57
2022-08-09T21:36:58.850Z,17.55
2022-08-09T21:39:42.181Z,17.54
2022-08-09T21:42:12.213Z,17.50
2022-08-09T21:44:42.828Z,17.48
2022-08-09T21:47:18.141Z,17.47
2022-08-09T21:49:49.689Z,17.35
2022-08-09T21:52:22.025Z,17.15
2022-08-09T21:54:59.439Z,17.04
2022-08-09T21:57:38.413Z,16.92
2022-08-09T22:00:25.341Z,16.90
2022-08-09T22:02:58.978Z,16.90
2022-08-09T22:05:35.817Z,16.96
2022-08-09T22:08:13.242Z,16.98
2022-08-09T22:11:48.953Z,17.01
2022-08-09T22:13:35.737Z,16.93
2022-08-09T22:16:09.127Z,16.89
2022-08-09T22:18:52.148Z,16.88
2022-08-09T22:21:50.280Z,16.85
2022-08-09T22:24:21.104Z,16.83
2022-08-09T22:26:54.999Z,16.82
2022-08-09T22:29:32.106Z,16.85
2022-08-09T22:32:06.906Z,16.86
2022-08-09T22:35:02.252Z,16.88
2022-08-09T22:37:40.332Z,16.86
2022-08-09T22:40:19.882Z,16.89
2022-08-09T22:42:50.054Z,16.86
2022-08-09T22:48:16.878Z,16.88
2022-08-09T22:48:22.786Z,16.88
2022-08-09T22:50:58.226Z,16.91
2022-08-09T22:53:33.308Z,16.93
2022-08-09T22:56:30.894Z,16.94
2022-08-09T22:59:05.655Z,16.94
2022-08-09T23:01:35.557Z,16.95
2022-08-09T23:04:07.269Z,16.94
2022-08-09T23:06:59.643Z,16.94
2022-08-09T23:09:30.592Z,16.92
2022-08-09T23:12:06.227Z,16.92
2022-08-09T23:14:41.350Z,16.95
2022-08-09T23:17:12.237Z,16.92
2022-08-09T23:20:07.421Z,16.90
2022-08-09T23:22:31.101Z,16.90
2022-08-09T23:25:02.055Z,16.89
2022-08-09T23:27:31.290Z,16.89
2022-08-09T23:30:00.644Z,16.92
2022-08-09T23:32:30.220Z,16.89
2022-08-09T23:34:59.549Z,16.89
2022-08-09T23:37:28.858Z,16.88
2022-08-09T23:39:58.384Z,16.87
2022-08-09T23:42:30.363Z,16.86
2022-08-09T23:44:59.933Z,16.86
2022-08-09T23:47:29.230Z,16.80
2022-08-09T23:49:58.536Z,16.75
2022-08-09T23:52:28.037Z,16.74
2022-08-09T23:54:57.330Z,16.75
2022-08-09T23:57:26.641Z,16.75
